sensor_id;sensor_type;location;lat;lon;timestamp;pressure;altitude;pressure_sealevel;temperature;humidity
62600;BME280;48671;48.922;2.346;2023-05-12T00:01:10;101463.53;;;14.67;55.79
62600;BME280;48671;48.922;2.346;2023-05-12T00:03:38;101451.06;;;14.54;55.59
62600;BME280;48671;48.922;2.346;2023-05-12T00:06:06;101465.53;;;14.62;55.44
62600;BME280;48671;48.922;2.346;2023-05-12T00:08:32;101452.06;;;14.49;55.14
62600;BME280;48671;48.922;2.346;2023-05-12T00:10:57;101459.63;;;14.57;55.76
62600;BME280;48671;48.922;2.346;2023-05-12T00:13:23;101476.84;;;14.63;55.57
62600;BME280;48671;48.922;2.346;2023-05-12T00:15:52;101461.66;;;14.50;55.43
62600;BME280;48671;48.922;2.346;2023-05-12T00:18:19;101467.56;;;14.56;55.59
62600;BME280;48671;48.922;2.346;2023-05-12T00:20:55;101447.94;;;14.44;55.41
62600;BME280;48671;48.922;2.346;2023-05-12T00:23:21;101452.34;;;14.43;55.00
62600;BME280;48671;48.922;2.346;2023-05-12T00:25:47;101462.81;;;14.43;55.39
62600;BME280;48671;48.922;2.346;2023-05-12T00:28:12;101468.19;;;14.40;55.19
62600;BME280;48671;48.922;2.346;2023-05-12T00:30:37;101466.75;;;14.33;55.63
62600;BME280;48671;48.922;2.346;2023-05-12T00:33:03;101457.31;;;14.29;55.18
62600;BME280;48671;48.922;2.346;2023-05-12T00:35:29;101467.72;;;14.31;55.59
62600;BME280;48671;48.922;2.346;2023-05-12T00:37:54;101477.84;;;14.38;55.95
62600;BME280;48671;48.922;2.346;2023-05-12T00:40:20;101455.69;;;14.26;55.25
62600;BME280;48671;48.922;2.346;2023-05-12T00:42:45;101472.03;;;14.32;55.55
62600;BME280;48671;48.922;2.346;2023-05-12T00:45:10;101477.47;;;14.27;55.31
62600;BME280;48671;48.922;2.346;2023-05-12T00:47:36;101470.66;;;14.23;55.58
62600;BME280;48671;48.922;2.346;2023-05-12T00:50:03;101467.25;;;14.21;55.46
62600;BME280;48671;48.922;2.346;2023-05-12T00:52:29;101480.72;;;14.32;55.67
62600;BME280;48671;48.922;2.346;2023-05-12T00:54:56;101483.34;;;14.32;55.45
62600;BME280;48671;48.922;2.346;2023-05-12T00:57:24;101456.09;;;14.16;55.31
62600;BME280;48671;48.922;2.346;2023-05-12T00:59:49;101444.78;;;14.15;55.90
62600;BME280;48671;48.922;2.346;2023-05-12T01:02:15;101479.97;;;14.30;55.71
62600;BME280;48671;48.922;2.346;2023-05-12T01:04:40;101465.22;;;14.27;55.92
62600;BME280;48671;48.922;2.346;2023-05-12T01:07:14;101462.16;;;14.18;55.83
62600;BME280;48671;48.922;2.346;2023-05-12T01:09:42;101456.06;;;14.17;56.43
62600;BME280;48671;48.922;2.346;2023-05-12T01:12:07;101456.72;;;14.22;55.58
62600;BME280;48671;48.922;2.346;2023-05-12T01:14:32;101471.56;;;14.22;55.51
62600;BME280;48671;48.922;2.346;2023-05-12T01:17:01;101465.59;;;14.18;55.60
62600;BME280;48671;48.922;2.346;2023-05-12T01:19:45;101464.63;;;14.21;55.86
62600;BME280;48671;48.922;2.346;2023-05-12T01:22:11;101451.94;;;14.12;55.74
62600;BME280;48671;48.922;2.346;2023-05-12T01:24:53;101469.19;;;14.16;55.83
62600;BME280;48671;48.922;2.346;2023-05-12T01:27:20;101452.06;;;14.09;55.79
62600;BME280;48671;48.922;2.346;2023-05-12T01:29:46;101464.13;;;14.13;55.60
62600;BME280;48671;48.922;2.346;2023-05-12T01:32:13;101477.13;;;14.14;55.91
62600;BME280;48671;48.922;2.346;2023-05-12T01:34:39;101467.75;;;14.09;56.11
62600;BME280;48671;48.922;2.346;2023-05-12T01:37:07;101472.00;;;14.11;56.24
62600;BME280;48671;48.922;2.346;2023-05-12T01:39:33;101466.91;;;14.08;56.07
62600;BME280;48671;48.922;2.346;2023-05-12T01:41:58;101466.13;;;14.06;56.46
62600;BME280;48671;48.922;2.346;2023-05-12T01:44:24;101465.47;;;14.01;56.34
62600;BME280;48671;48.922;2.346;2023-05-12T01:46:49;101458.72;;;13.95;56.57
62600;BME280;48671;48.922;2.346;2023-05-12T01:49:14;101464.66;;;13.99;56.86
62600;BME280;48671;48.922;2.346;2023-05-12T01:51:40;101462.00;;;14.00;56.86
62600;BME280;48671;48.922;2.346;2023-05-12T01:54:05;101468.81;;;14.04;56.84
62600;BME280;48671;48.922;2.346;2023-05-12T01:56:30;101456.22;;;13.92;56.70
62600;BME280;48671;48.922;2.346;2023-05-12T01:58:56;101463.16;;;13.93;56.68
62600;BME280;48671;48.922;2.346;2023-05-12T02:01:21;101458.78;;;13.94;56.88
62600;BME280;48671;48.922;2.346;2023-05-12T02:03:49;101454.53;;;13.91;57.17
62600;BME280;48671;48.922;2.346;2023-05-12T02:06:15;101471.03;;;13.93;57.41
62600;BME280;48671;48.922;2.346;2023-05-12T02:08:41;101485.59;;;13.99;57.68
62600;BME280;48671;48.922;2.346;2023-05-12T02:11:07;101466.69;;;13.92;57.57
62600;BME280;48671;48.922;2.346;2023-05-12T02:13:32;101458.19;;;13.87;57.65
62600;BME280;48671;48.922;2.346;2023-05-12T02:15:59;101466.06;;;13.86;57.73
62600;BME280;48671;48.922;2.346;2023-05-12T02:18:24;101468.09;;;13.79;57.80
62600;BME280;48671;48.922;2.346;2023-05-12T02:20:50;101454.38;;;13.74;57.93
62600;BME280;48671;48.922;2.346;2023-05-12T02:23:15;101461.41;;;13.72;58.01
62600;BME280;48671;48.922;2.346;2023-05-12T02:25:40;101467.69;;;13.68;57.86
62600;BME280;48671;48.922;2.346;2023-05-12T02:28:06;101462.69;;;13.62;58.49
62600;BME280;48671;48.922;2.346;2023-05-12T02:30:37;101473.94;;;13.64;58.58
62600;BME280;48671;48.922;2.346;2023-05-12T02:33:03;101451.97;;;13.46;58.92
62600;BME280;48671;48.922;2.346;2023-05-12T02:35:30;101448.69;;;13.41;58.92
62600;BME280;48671;48.922;2.346;2023-05-12T02:37:55;101448.75;;;13.39;59.07
62600;BME280;48671;48.922;2.346;2023-05-12T02:40:21;101459.88;;;13.44;58.88
62600;BME280;48671;48.922;2.346;2023-05-12T02:42:46;101455.50;;;13.45;59.18
62600;BME280;48671;48.922;2.346;2023-05-12T02:45:12;101462.19;;;13.52;58.84
62600;BME280;48671;48.922;2.346;2023-05-12T02:47:37;101443.47;;;13.41;58.70
62600;BME280;48671;48.922;2.346;2023-05-12T02:50:03;101445.28;;;13.39;58.69
62600;BME280;48671;48.922;2.346;2023-05-12T02:52:29;101462.66;;;13.40;59.42
62600;BME280;48671;48.922;2.346;2023-05-12T02:54:54;101458.59;;;13.32;59.98
62600;BME280;48671;48.922;2.346;2023-05-12T02:57:20;101449.28;;;13.25;59.33
62600;BME280;48671;48.922;2.346;2023-05-12T02:59:46;101452.75;;;13.26;59.75
62600;BME280;48671;48.922;2.346;2023-05-12T03:02:11;101456.16;;;13.28;59.64
62600;BME280;48671;48.922;2.346;2023-05-12T03:04:37;101451.03;;;13.25;59.66
62600;BME280;48671;48.922;2.346;2023-05-12T03:07:02;101439.84;;;13.21;59.92
62600;BME280;48671;48.922;2.346;2023-05-12T03:09:28;101462.97;;;13.32;59.98
62600;BME280;48671;48.922;2.346;2023-05-12T03:11:53;101460.34;;;13.32;59.39
62600;BME280;48671;48.922;2.346;2023-05-12T03:14:19;101449.38;;;13.22;60.11
62600;BME280;48671;48.922;2.346;2023-05-12T03:16:44;101469.16;;;13.29;59.97
62600;BME280;48671;48.922;2.346;2023-05-12T03:19:10;101439.94;;;13.18;60.07
62600;BME280;48671;48.922;2.346;2023-05-12T03:21:35;101453.53;;;13.28;59.92
62600;BME280;48671;48.922;2.346;2023-05-12T03:24:01;101472.34;;;13.38;60.05
62600;BME280;48671;48.922;2.346;2023-05-12T03:26:26;101463.81;;;13.32;59.98
62600;BME280;48671;48.922;2.346;2023-05-12T03:28:52;101447.78;;;13.18;59.79
62600;BME280;48671;48.922;2.346;2023-05-12T03:31:17;101472.56;;;13.31;60.10
62600;BME280;48671;48.922;2.346;2023-05-12T03:33:42;101442.69;;;13.15;59.97
62600;BME280;48671;48.922;2.346;2023-05-12T03:36:08;101453.84;;;13.19;59.97
62600;BME280;48671;48.922;2.346;2023-05-12T03:38:34;101447.06;;;13.15;60.48
62600;BME280;48671;48.922;2.346;2023-05-12T03:41:06;101446.13;;;13.16;59.85
62600;BME280;48671;48.922;2.346;2023-05-12T03:43:32;101439.47;;;13.07;60.23
62600;BME280;48671;48.922;2.346;2023-05-12T03:45:58;101444.72;;;13.07;60.19
62600;BME280;48671;48.922;2.346;2023-05-12T03:48:24;101455.66;;;13.17;60.06
62600;BME280;48671;48.922;2.346;2023-05-12T03:50:49;101436.03;;;13.06;60.27
62600;BME280;48671;48.922;2.346;2023-05-12T03:53:15;101449.53;;;13.18;60.26
62600;BME280;48671;48.922;2.346;2023-05-12T03:55:40;101452.19;;;13.16;60.66
62600;BME280;48671;48.922;2.346;2023-05-12T03:58:06;101443.63;;;13.12;60.33
62600;BME280;48671;48.922;2.346;2023-05-12T04:00:32;101460.72;;;13.21;60.50
62600;BME280;48671;48.922;2.346;2023-05-12T04:02:58;101459.84;;;13.21;60.44
62600;BME280;48671;48.922;2.346;2023-05-12T04:05:23;101450.56;;;13.13;60.47
62600;BME280;48671;48.922;2.346;2023-05-12T04:07:49;101460.13;;;13.15;59.93
62600;BME280;48671;48.922;2.346;2023-05-12T04:10:14;101461.06;;;13.12;60.95
62600;BME280;48671;48.922;2.346;2023-05-12T04:12:40;101450.16;;;13.01;60.33
62600;BME280;48671;48.922;2.346;2023-05-12T04:15:06;101460.72;;;12.98;60.17
62600;BME280;48671;48.922;2.346;2023-05-12T04:17:32;101473.50;;;13.05;60.39
62600;BME280;48671;48.922;2.346;2023-05-12T04:19:57;101460.78;;;12.96;60.37
62600;BME280;48671;48.922;2.346;2023-05-12T04:22:23;101451.19;;;12.97;59.91
62600;BME280;48671;48.922;2.346;2023-05-12T04:24:48;101450.44;;;12.93;60.05
62600;BME280;48671;48.922;2.346;2023-05-12T04:27:14;101449.53;;;12.94;60.16
62600;BME280;48671;48.922;2.346;2023-05-12T04:29:39;101465.94;;;12.98;59.36
62600;BME280;48671;48.922;2.346;2023-05-12T04:32:05;101468.50;;;12.99;59.72
62600;BME280;48671;48.922;2.346;2023-05-12T04:34:30;101465.94;;;12.98;59.45
62600;BME280;48671;48.922;2.346;2023-05-12T04:36:56;101457.38;;;12.94;58.96
62600;BME280;48671;48.922;2.346;2023-05-12T04:39:21;101451.41;;;12.91;58.38
62600;BME280;48671;48.922;2.346;2023-05-12T04:41:46;101443.78;;;12.84;57.29
62600;BME280;48671;48.922;2.346;2023-05-12T04:44:12;101461.94;;;12.89;57.89
62600;BME280;48671;48.922;2.346;2023-05-12T04:46:37;101484.34;;;12.95;57.58
62600;BME280;48671;48.922;2.346;2023-05-12T04:49:03;101457.84;;;12.82;57.14
62600;BME280;48671;48.922;2.346;2023-05-12T04:51:28;101464.75;;;12.83;57.10
62600;BME280;48671;48.922;2.346;2023-05-12T04:53:54;101469.25;;;12.79;56.70
62600;BME280;48671;48.922;2.346;2023-05-12T04:56:19;101476.69;;;12.90;57.10
62600;BME280;48671;48.922;2.346;2023-05-12T04:58:46;101469.75;;;12.89;57.42
62600;BME280;48671;48.922;2.346;2023-05-12T05:01:11;101478.44;;;12.89;56.93
62600;BME280;48671;48.922;2.346;2023-05-12T05:03:38;101481.78;;;12.93;56.98
62600;BME280;48671;48.922;2.346;2023-05-12T05:06:03;101481.91;;;12.90;56.59
62600;BME280;48671;48.922;2.346;2023-05-12T05:08:29;101488.72;;;12.94;56.57
62600;BME280;48671;48.922;2.346;2023-05-12T05:10:54;101492.31;;;12.92;56.37
62600;BME280;48671;48.922;2.346;2023-05-12T05:13:19;101483.88;;;12.83;56.12
62600;BME280;48671;48.922;2.346;2023-05-12T05:15:49;101483.88;;;12.83;56.53
62600;BME280;48671;48.922;2.346;2023-05-12T05:18:15;101485.56;;;12.84;55.97
62600;BME280;48671;48.922;2.346;2023-05-12T05:20:40;101495.06;;;12.87;56.09
62600;BME280;48671;48.922;2.346;2023-05-12T05:23:06;101487.34;;;12.84;56.80
62600;BME280;48671;48.922;2.346;2023-05-12T05:25:33;101501.00;;;12.92;55.64
62600;BME280;48671;48.922;2.346;2023-05-12T05:27:58;101506.03;;;12.97;55.84
62600;BME280;48671;48.922;2.346;2023-05-12T05:30:24;101494.16;;;12.88;55.85
62600;BME280;48671;48.922;2.346;2023-05-12T05:32:49;101503.50;;;12.95;55.93
62600;BME280;48671;48.922;2.346;2023-05-12T05:35:14;101512.09;;;12.97;55.32
62600;BME280;48671;48.922;2.346;2023-05-12T05:37:40;101507.00;;;12.94;55.65
62600;BME280;48671;48.922;2.346;2023-05-12T05:40:06;101507.09;;;12.91;56.23
62600;BME280;48671;48.922;2.346;2023-05-12T05:42:31;101509.56;;;12.96;55.55
62600;BME280;48671;48.922;2.346;2023-05-12T05:44:57;101497.53;;;12.92;55.88
62600;BME280;48671;48.922;2.346;2023-05-12T05:47:22;101500.16;;;12.92;56.17
62600;BME280;48671;48.922;2.346;2023-05-12T05:49:47;101491.66;;;12.85;55.46
62600;BME280;48671;48.922;2.346;2023-05-12T05:52:13;101514.91;;;12.93;55.84
62600;BME280;48671;48.922;2.346;2023-05-12T05:54:38;101505.59;;;12.85;55.77
62600;BME280;48671;48.922;2.346;2023-05-12T05:57:03;101513.34;;;12.87;55.78
62600;BME280;48671;48.922;2.346;2023-05-12T05:59:29;101504.03;;;12.80;56.60
62600;BME280;48671;48.922;2.346;2023-05-12T06:01:54;101505.72;;;12.81;55.78
62600;BME280;48671;48.922;2.346;2023-05-12T06:04:19;101510.75;;;12.87;55.84
62600;BME280;48671;48.922;2.346;2023-05-12T06:06:45;101511.53;;;12.89;55.22
62600;BME280;48671;48.922;2.346;2023-05-12T06:09:10;101509.88;;;12.86;55.08
62600;BME280;48671;48.922;2.346;2023-05-12T06:11:37;101512.22;;;12.94;55.21
62600;BME280;48671;48.922;2.346;2023-05-12T06:14:03;101506.25;;;12.91;54.83
62600;BME280;48671;48.922;2.346;2023-05-12T06:16:28;101503.00;;;12.84;55.00
62600;BME280;48671;48.922;2.346;2023-05-12T06:18:54;101485.75;;;12.80;54.93
62600;BME280;48671;48.922;2.346;2023-05-12T06:21:19;101510.41;;;12.96;55.24
62600;BME280;48671;48.922;2.346;2023-05-12T06:23:44;101491.50;;;12.89;55.22
62600;BME280;48671;48.922;2.346;2023-05-12T06:26:10;101504.22;;;12.99;55.12
62600;BME280;48671;48.922;2.346;2023-05-12T06:28:35;101506.75;;;13.02;55.66
62600;BME280;48671;48.922;2.346;2023-05-12T06:31:01;101508.03;;;13.13;55.33
62600;BME280;48671;48.922;2.346;2023-05-12T06:33:26;101503.63;;;13.16;55.55
62600;BME280;48671;48.922;2.346;2023-05-12T06:35:52;101505.94;;;13.25;55.53
62600;BME280;48671;48.922;2.346;2023-05-12T06:38:17;101515.25;;;13.32;55.48
62600;BME280;48671;48.922;2.346;2023-05-12T06:40:42;101505.56;;;13.34;55.18
62600;BME280;48671;48.922;2.346;2023-05-12T06:43:08;101522.00;;;13.38;54.93
62600;BME280;48671;48.922;2.346;2023-05-12T06:45:33;101518.50;;;13.37;55.02
62600;BME280;48671;48.922;2.346;2023-05-12T06:47:58;101511.72;;;13.33;55.02
62600;BME280;48671;48.922;2.346;2023-05-12T06:50:24;101511.72;;;13.33;55.18
62600;BME280;48671;48.922;2.346;2023-05-12T06:52:49;101521.13;;;13.37;55.53
62600;BME280;48671;48.922;2.346;2023-05-12T06:55:15;101519.91;;;13.47;55.79
62600;BME280;48671;48.922;2.346;2023-05-12T06:57:43;101516.06;;;13.56;55.68
62600;BME280;48671;48.922;2.346;2023-05-12T07:00:09;101527.88;;;13.66;55.35
62600;BME280;48671;48.922;2.346;2023-05-12T07:02:34;101519.00;;;13.70;55.06
62600;BME280;48671;48.922;2.346;2023-05-12T07:05:00;101516.28;;;13.73;55.29
62600;BME280;48671;48.922;2.346;2023-05-12T07:07:25;101527.22;;;13.83;55.58
62600;BME280;48671;48.922;2.346;2023-05-12T07:09:51;101515.91;;;13.82;55.14
62600;BME280;48671;48.922;2.346;2023-05-12T07:12:16;101522.72;;;13.87;55.53
62600;BME280;48671;48.922;2.346;2023-05-12T07:14:42;101512.16;;;13.90;55.45
62600;BME280;48671;48.922;2.346;2023-05-12T07:17:07;101512.88;;;13.93;55.34
62600;BME280;48671;48.922;2.346;2023-05-12T07:19:32;101520.34;;;14.02;55.64
62600;BME280;48671;48.922;2.346;2023-05-12T07:21:59;101512.25;;;14.09;55.85
62600;BME280;48671;48.922;2.346;2023-05-12T07:24:25;101518.03;;;14.17;55.36
62600;BME280;48671;48.922;2.346;2023-05-12T07:26:51;101517.91;;;14.20;55.90
62600;BME280;48671;48.922;2.346;2023-05-12T07:29:17;101509.00;;;14.24;55.79
62600;BME280;48671;48.922;2.346;2023-05-12T07:31:42;101517.38;;;14.32;55.54
62600;BME280;48671;48.922;2.346;2023-05-12T07:34:08;101512.00;;;14.35;55.67
62600;BME280;48671;48.922;2.346;2023-05-12T07:36:33;101516.41;;;14.35;55.71
62600;BME280;48671;48.922;2.346;2023-05-12T07:38:58;101503.53;;;14.30;55.56
62600;BME280;48671;48.922;2.346;2023-05-12T07:41:24;101512.56;;;14.43;56.00
62600;BME280;48671;48.922;2.346;2023-05-12T07:43:49;101511.50;;;14.47;55.62
62600;BME280;48671;48.922;2.346;2023-05-12T07:46:14;101503.78;;;14.44;55.72
62600;BME280;48671;48.922;2.346;2023-05-12T07:48:40;101518.44;;;14.48;56.16
62600;BME280;48671;48.922;2.346;2023-05-12T07:51:06;101499.25;;;14.48;56.11
62600;BME280;48671;48.922;2.346;2023-05-12T07:53:31;101511.16;;;14.57;55.82
62600;BME280;48671;48.922;2.346;2023-05-12T07:55:57;101507.75;;;14.55;56.18
62600;BME280;48671;48.922;2.346;2023-05-12T07:58:22;101498.06;;;14.57;56.24
62600;BME280;48671;48.922;2.346;2023-05-12T08:00:47;101511.03;;;14.60;56.81
62600;BME280;48671;48.922;2.346;2023-05-12T08:03:13;101510.69;;;14.67;56.86
62600;BME280;48671;48.922;2.346;2023-05-12T08:05:40;101504.41;;;14.71;56.27
62600;BME280;48671;48.922;2.346;2023-05-12T08:08:05;101507.69;;;14.77;56.82
62600;BME280;48671;48.922;2.346;2023-05-12T08:10:31;101504.00;;;14.81;56.93
62600;BME280;48671;48.922;2.346;2023-05-12T08:12:57;101497.16;;;14.78;57.30
62600;BME280;48671;48.922;2.346;2023-05-12T08:15:22;101508.06;;;14.88;57.25
62600;BME280;48671;48.922;2.346;2023-05-12T08:17:48;101511.47;;;14.90;57.45
62600;BME280;48671;48.922;2.346;2023-05-12T08:20:13;101518.38;;;14.91;57.69
62600;BME280;48671;48.922;2.346;2023-05-12T08:22:38;101507.06;;;14.90;57.54
62600;BME280;48671;48.922;2.346;2023-05-12T08:25:04;101515.06;;;14.87;57.37
62600;BME280;48671;48.922;2.346;2023-05-12T08:27:30;101510.09;;;14.81;58.65
62600;BME280;48671;48.922;2.346;2023-05-12T08:29:55;101507.47;;;14.81;58.59
62600;BME280;48671;48.922;2.346;2023-05-12T08:32:21;101524.91;;;14.82;60.64
62600;BME280;48671;48.922;2.346;2023-05-12T08:34:46;101523.19;;;14.81;59.58
62600;BME280;48671;48.922;2.346;2023-05-12T08:37:12;101512.41;;;14.68;61.79
62600;BME280;48671;48.922;2.346;2023-05-12T08:39:37;101537.84;;;14.65;61.12
62600;BME280;48671;48.922;2.346;2023-05-12T08:44:50;101541.00;;;14.52;61.84
62600;BME280;48671;48.922;2.346;2023-05-12T08:47:17;101528.25;;;14.43;62.64
62600;BME280;48671;48.922;2.346;2023-05-12T08:49:45;101524.94;;;14.40;62.60
62600;BME280;48671;48.922;2.346;2023-05-12T08:52:15;101533.44;;;14.45;63.89
62600;BME280;48671;48.922;2.346;2023-05-12T08:54:46;101526.03;;;14.34;64.64
62600;BME280;48671;48.922;2.346;2023-05-12T08:57:11;101539.66;;;14.42;63.90
62600;BME280;48671;48.922;2.346;2023-05-12T08:59:38;101532.19;;;14.33;64.14
62600;BME280;48671;48.922;2.346;2023-05-12T09:02:08;101545.66;;;14.24;64.06
62600;BME280;48671;48.922;2.346;2023-05-12T09:04:34;101536.28;;;14.18;64.89
62600;BME280;48671;48.922;2.346;2023-05-12T09:07:02;101529.78;;;14.07;65.48
62600;BME280;48671;48.922;2.346;2023-05-12T09:09:30;101547.19;;;14.08;66.15
62600;BME280;48671;48.922;2.346;2023-05-12T09:11:58;101549.19;;;14.01;65.28
62600;BME280;48671;48.922;2.346;2023-05-12T09:14:26;101546.16;;;13.90;66.18
62600;BME280;48671;48.922;2.346;2023-05-12T09:17:00;101548.13;;;13.83;66.77
62600;BME280;48671;48.922;2.346;2023-05-12T09:19:27;101546.63;;;13.77;66.94
62600;BME280;48671;48.922;2.346;2023-05-12T09:21:52;101548.56;;;13.72;68.00
62600;BME280;48671;48.922;2.346;2023-05-12T09:24:17;101542.56;;;13.70;68.02
62600;BME280;48671;48.922;2.346;2023-05-12T09:26:51;101544.13;;;13.74;68.33
62600;BME280;48671;48.922;2.346;2023-05-12T09:29:17;101540.56;;;13.77;68.18
62600;BME280;48671;48.922;2.346;2023-05-12T09:31:50;101549.75;;;13.87;68.97
62600;BME280;48671;48.922;2.346;2023-05-12T09:34:16;101542.78;;;13.86;69.21
62600;BME280;48671;48.922;2.346;2023-05-12T09:36:42;101549.53;;;13.92;69.19
62600;BME280;48671;48.922;2.346;2023-05-12T09:39:08;101547.72;;;13.94;69.69
62600;BME280;48671;48.922;2.346;2023-05-12T09:41:43;101551.44;;;14.10;70.25
62600;BME280;48671;48.922;2.346;2023-05-12T09:44:09;101544.72;;;14.25;68.72
62600;BME280;48671;48.922;2.346;2023-05-12T09:46:35;101546.25;;;14.31;69.14
62600;BME280;48671;48.922;2.346;2023-05-12T09:49:02;101539.63;;;14.22;68.88
62600;BME280;48671;48.922;2.346;2023-05-12T09:51:28;101540.09;;;14.32;68.86
62600;BME280;48671;48.922;2.346;2023-05-12T09:53:55;101541.72;;;14.34;68.71
62600;BME280;48671;48.922;2.346;2023-05-12T09:56:20;101548.75;;;14.34;69.44
62600;BME280;48671;48.922;2.346;2023-05-12T09:58:48;101539.13;;;14.34;69.68
62600;BME280;48671;48.922;2.346;2023-05-12T10:01:16;101544.91;;;14.42;68.79
62600;BME280;48671;48.922;2.346;2023-05-12T10:03:44;101551.09;;;14.40;69.15
62600;BME280;48671;48.922;2.346;2023-05-12T10:06:13;101535.78;;;14.31;68.36
62600;BME280;48671;48.922;2.346;2023-05-12T10:08:47;101536.03;;;14.24;68.29
62600;BME280;48671;48.922;2.346;2023-05-12T10:11:15;101548.25;;;14.24;68.89
62600;BME280;48671;48.922;2.346;2023-05-12T10:13:42;101540.34;;;14.25;69.01
62600;BME280;48671;48.922;2.346;2023-05-12T10:16:08;101541.94;;;14.29;69.54
62600;BME280;48671;48.922;2.346;2023-05-12T10:18:33;101543.72;;;14.29;68.83
62600;BME280;48671;48.922;2.346;2023-05-12T10:20:59;101517.34;;;14.12;69.36
62600;BME280;48671;48.922;2.346;2023-05-12T10:23:26;101533.78;;;14.15;69.33
62600;BME280;48671;48.922;2.346;2023-05-12T10:25:52;101523.63;;;14.08;69.08
62600;BME280;48671;48.922;2.346;2023-05-12T10:28:22;101528.63;;;14.14;69.33
62600;BME280;48671;48.922;2.346;2023-05-12T10:30:48;101537.00;;;14.22;68.98
62600;BME280;48671;48.922;2.346;2023-05-12T10:33:15;101540.28;;;14.27;68.73
62600;BME280;48671;48.922;2.346;2023-05-12T10:35:41;101540.28;;;14.27;68.69
62600;BME280;48671;48.922;2.346;2023-05-12T10:38:09;101535.91;;;14.27;68.88
62600;BME280;48671;48.922;2.346;2023-05-12T10:40:55;101528.97;;;14.26;68.91
62600;BME280;48671;48.922;2.346;2023-05-12T10:43:40;101531.59;;;14.26;69.06
62600;BME280;48671;48.922;2.346;2023-05-12T10:46:16;101533.09;;;14.32;68.66
62600;BME280;48671;48.922;2.346;2023-05-12T10:51:46;101526.63;;;14.41;69.27
62600;BME280;48671;48.922;2.346;2023-05-12T10:54:23;101527.34;;;14.44;68.83
62600;BME280;48671;48.922;2.346;2023-05-12T10:56:49;101533.03;;;14.56;68.84
62600;BME280;48671;48.922;2.346;2023-05-12T10:59:22;101523.66;;;14.48;67.68
62600;BME280;48671;48.922;2.346;2023-05-12T11:02:05;101529.69;;;14.52;69.16
62600;BME280;48671;48.922;2.346;2023-05-12T11:04:44;101530.41;;;14.56;69.00
62600;BME280;48671;48.922;2.346;2023-05-12T11:07:12;101526.59;;;14.63;69.17
62600;BME280;48671;48.922;2.346;2023-05-12T11:09:42;101520.44;;;14.64;68.22
62600;BME280;48671;48.922;2.346;2023-05-12T11:12:09;101524.50;;;14.71;68.01
62600;BME280;48671;48.922;2.346;2023-05-12T11:14:36;101515.66;;;14.73;68.28
62600;BME280;48671;48.922;2.346;2023-05-12T11:17:02;101517.94;;;14.81;68.49
62600;BME280;48671;48.922;2.346;2023-05-12T11:19:28;101507.41;;;14.83;67.31
62600;BME280;48671;48.922;2.346;2023-05-12T11:21:54;101513.91;;;14.94;68.20
62600;BME280;48671;48.922;2.346;2023-05-12T11:24:23;101516.16;;;15.02;67.34
62600;BME280;48671;48.922;2.346;2023-05-12T11:26:49;101514.84;;;15.12;67.52
62600;BME280;48671;48.922;2.346;2023-05-12T11:29:17;101508.25;;;15.22;66.51
62600;BME280;48671;48.922;2.346;2023-05-12T11:31:49;101504.28;;;15.33;66.24
62600;BME280;48671;48.922;2.346;2023-05-12T11:34:14;101504.56;;;15.45;66.68
62600;BME280;48671;48.922;2.346;2023-05-12T11:36:43;101505.50;;;15.63;67.03
62600;BME280;48671;48.922;2.346;2023-05-12T11:39:18;101503.31;;;15.73;65.37
62600;BME280;48671;48.922;2.346;2023-05-12T11:41:45;101493.22;;;15.64;64.69
62600;BME280;48671;48.922;2.346;2023-05-12T11:44:15;101496.41;;;15.52;64.60
62600;BME280;48671;48.922;2.346;2023-05-12T11:46:41;101495.94;;;15.43;64.47
62600;BME280;48671;48.922;2.346;2023-05-12T11:49:10;101495.38;;;15.37;64.77
62600;BME280;48671;48.922;2.346;2023-05-12T11:51:41;101485.09;;;15.32;64.54
62600;BME280;48671;48.922;2.346;2023-05-12T11:54:07;101486.91;;;15.30;65.54
62600;BME280;48671;48.922;2.346;2023-05-12T11:56:33;101481.91;;;15.26;65.10
62600;BME280;48671;48.922;2.346;2023-05-12T11:58:58;101485.59;;;15.21;65.30
62600;BME280;48671;48.922;2.346;2023-05-12T12:01:24;101485.78;;;15.17;64.90
62600;BME280;48671;48.922;2.346;2023-05-12T12:03:52;101488.53;;;15.14;64.60
62600;BME280;48671;48.922;2.346;2023-05-12T12:06:19;101492.50;;;15.04;64.92
62600;BME280;48671;48.922;2.346;2023-05-12T12:08:51;101489.25;;;14.98;65.38
62600;BME280;48671;48.922;2.346;2023-05-12T12:11:18;101494.75;;;14.92;64.99
62600;BME280;48671;48.922;2.346;2023-05-12T12:13:50;101508.97;;;14.87;65.42
62600;BME280;48671;48.922;2.346;2023-05-12T12:16:27;101504.91;;;14.80;65.45
62600;BME280;48671;48.922;2.346;2023-05-12T12:18:53;101500.75;;;14.75;65.20
62600;BME280;48671;48.922;2.346;2023-05-12T12:21:19;101498.38;;;14.69;65.58
62600;BME280;48671;48.922;2.346;2023-05-12T12:23:46;101495.94;;;14.65;65.73
62600;BME280;48671;48.922;2.346;2023-05-12T12:26:11;101503.53;;;14.71;65.79
62600;BME280;48671;48.922;2.346;2023-05-12T12:28:38;101507.94;;;14.70;65.33
62600;BME280;48671;48.922;2.346;2023-05-12T12:31:03;101503.81;;;14.65;65.20
62600;BME280;48671;48.922;2.346;2023-05-12T12:33:29;101506.28;;;14.68;65.57
62600;BME280;48671;48.922;2.346;2023-05-12T12:35:54;101515.91;;;14.67;64.53
62600;BME280;48671;48.922;2.346;2023-05-12T12:38:19;101504.72;;;14.64;64.73
62600;BME280;48671;48.922;2.346;2023-05-12T12:40:45;101509.13;;;14.63;64.59
62600;BME280;48671;48.922;2.346;2023-05-12T12:43:10;101511.03;;;14.60;64.98
62600;BME280;48671;48.922;2.346;2023-05-12T12:45:36;101517.94;;;14.61;65.02
62600;BME280;48671;48.922;2.346;2023-05-12T12:48:01;101511.88;;;14.60;65.65
62600;BME280;48671;48.922;2.346;2023-05-12T12:50:26;101500.34;;;14.64;65.21
62600;BME280;48671;48.922;2.346;2023-05-12T12:52:52;101506.38;;;14.66;64.92